Time;durP1;ratioP1;P1;durP2;ratioP2;P2;SDS_P1;SDS_P2;PMS_P1;PMS_P2;Temp;Humidity;BMP_temperature;BMP_pressure;BME280_temperature;BME280_humidity;BME280_pressure;Samples;Min_cycle;Max_cycle;Signal;HPM_P1;HPM_P2
2022/05/12 00:00:46;;;;;;;0.00;0.00;;;;;;;;;;5070809;28;20025;-58
2022/05/12 00:03:13;;;;;;;0.00;0.00;;;;;;;;;;5069248;28;20028;-58
2022/05/12 00:05:38;;;;;;;0.00;0.00;;;;;;;;;;5052503;28;20039;-59
2022/05/12 00:08:03;;;;;;;0.00;0.00;;;;;;;;;;5069754;28;20412;-59
2022/05/12 00:10:29;;;;;;;0.00;0.00;;;;;;;;;;5068829;28;20790;-59
2022/05/12 00:12:56;;;;;;;0.00;0.00;;;;;;;;;;5069995;28;20032;-59
2022/05/12 00:15:24;;;;;;;0.00;0.00;;;;;;;;;;5069612;28;20021;-59
2022/05/12 00:17:49;;;;;;;0.00;0.00;;;;;;;;;;5069495;28;20042;-59
2022/05/12 00:20:16;;;;;;;0.00;0.00;;;;;;;;;;5069113;28;20028;-59
2022/05/12 00:22:42;;;;;;;0.00;0.00;;;;;;;;;;5069877;28;20446;-57
2022/05/12 00:25:12;;;;;;;0.00;0.00;;;;;;;;;;5070664;28;20103;-59
2022/05/12 00:27:37;;;;;;;0.00;0.00;;;;;;;;;;5070186;28;20024;-59
2022/05/12 00:30:04;;;;;;;0.00;0.00;;;;;;;;;;5070390;28;20043;-60
2022/05/12 00:32:30;;;;;;;0.00;0.00;;;;;;;;;;5069644;28;20024;-60
2022/05/12 00:34:55;;;;;;;0.00;0.00;;;;;;;;;;5069533;28;20051;-60
2022/05/12 00:37:20;;;;;;;0.50;0.50;;;;;;;;;;5069462;28;20059;-60
2022/05/12 00:39:45;;;;;;;0.00;0.00;;;;;;;;;;5069727;28;20247;-60
2022/05/12 00:42:11;;;;;;;0.00;0.00;;;;;;;;;;5069271;28;20255;-59
2022/05/12 00:44:36;;;;;;;0.00;0.00;;;;;;;;;;5070096;28;20043;-55
2022/05/12 00:47:01;;;;;;;0.00;0.00;;;;;;;;;;5071452;28;20036;-54
2022/05/12 00:49:29;;;;;;;0.00;0.00;;;;;;;;;;5070184;28;20770;-58
2022/05/12 00:51:56;;;;;;;0.00;0.00;;;;;;;;;;5069071;28;20044;-57
2022/05/12 00:54:35;;;;;;;0.00;0.00;;;;;;;;;;5069858;28;20028;-55
2022/05/12 00:57:01;;;;;;;0.00;0.00;;;;;;;;;;5069572;28;20377;-57
2022/05/12 00:59:30;;;;;;;0.00;0.00;;;;;;;;;;5070285;28;20031;-54
2022/05/12 01:01:56;;;;;;;0.00;0.00;;;;;;;;;;5069955;28;20016;-56
2022/05/12 01:04:22;;;;;;;0.00;0.00;;;;;;;;;;5070467;28;20508;-55
2022/05/12 01:06:47;;;;;;;0.00;0.00;;;;;;;;;;5069673;28;20027;-55
2022/05/12 01:09:13;;;;;;;0.00;0.00;;;;;;;;;;5070917;28;20513;-53
2022/05/12 01:11:38;;;;;;;0.00;0.00;;;;;;;;;;5070963;28;20480;-55
2022/05/12 01:14:04;;;;;;;0.00;0.00;;;;;;;;;;5070396;28;20028;-56
2022/05/12 01:16:34;;;;;;;0.00;0.00;;;;;;;;;;5070371;28;20017;-55
2022/05/12 01:18:59;;;;;;;0.05;0.05;;;;;;;;;;5070122;28;20822;-52
2022/05/12 01:21:28;;;;;;;0.00;0.00;;;;;;;;;;5068699;28;20039;-57
2022/05/12 01:23:53;;;;;;;0.00;0.00;;;;;;;;;;5070520;28;20132;-56
2022/05/12 01:26:18;;;;;;;0.00;0.00;;;;;;;;;;5069630;28;20736;-54
2022/05/12 01:28:43;;;;;;;0.00;0.00;;;;;;;;;;5069864;28;20036;-54
2022/05/12 01:31:13;;;;;;;0.00;0.00;;;;;;;;;;5069721;28;20024;-52
2022/05/12 01:33:39;;;;;;;0.00;0.00;;;;;;;;;;5068557;28;20039;-54
2022/05/12 01:36:04;;;;;;;0.00;0.00;;;;;;;;;;5069717;28;20062;-52
2022/05/12 01:38:29;;;;;;;0.00;0.00;;;;;;;;;;5069001;28;20024;-55
2022/05/12 01:40:55;;;;;;;0.00;0.00;;;;;;;;;;5070015;28;20440;-56
2022/05/12 01:43:20;;;;;;;0.00;0.00;;;;;;;;;;5068939;28;20034;-56
2022/05/12 01:45:46;;;;;;;0.00;0.00;;;;;;;;;;5069281;28;20508;-56
2022/05/12 01:48:12;;;;;;;0.00;0.00;;;;;;;;;;5069312;28;20012;-58
2022/05/12 01:50:38;;;;;;;0.00;0.00;;;;;;;;;;5068398;28;20379;-53
2022/05/12 01:53:04;;;;;;;0.00;0.00;;;;;;;;;;5068687;28;20028;-54
2022/05/12 01:55:29;;;;;;;0.00;0.00;;;;;;;;;;5068666;28;20085;-54
2022/05/12 01:57:55;;;;;;;0.00;0.00;;;;;;;;;;5069300;28;20029;-57
2022/05/12 02:00:22;;;;;;;0.00;0.00;;;;;;;;;;5069115;28;20025;-57
2022/05/12 02:02:47;;;;;;;0.00;0.00;;;;;;;;;;5069378;28;20048;-55
2022/05/12 02:05:13;;;;;;;0.00;0.00;;;;;;;;;;5069110;28;20051;-56
2022/05/12 02:07:39;;;;;;;0.00;0.00;;;;;;;;;;5067041;28;20028;-56
2022/05/12 02:10:05;;;;;;;0.00;0.00;;;;;;;;;;5071444;28;20103;-56
2022/05/12 02:12:31;;;;;;;0.00;0.00;;;;;;;;;;5072688;28;20100;-54
2022/05/12 02:14:56;;;;;;;0.00;0.00;;;;;;;;;;5073034;28;20100;-54
2022/05/12 02:17:21;;;;;;;0.00;0.00;;;;;;;;;;5072631;28;20495;-54
2022/05/12 02:19:46;;;;;;;0.00;0.00;;;;;;;;;;5072020;28;20521;-53
2022/05/12 02:22:12;;;;;;;0.00;0.00;;;;;;;;;;5071156;28;20110;-54
2022/05/12 02:24:37;;;;;;;0.00;0.00;;;;;;;;;;5072265;28;20043;-55
2022/05/12 02:27:02;;;;;;;0.00;0.00;;;;;;;;;;5071517;28;20078;-56
2022/05/12 02:29:27;;;;;;;0.00;0.00;;;;;;;;;;5073537;28;20021;-53
2022/05/12 02:31:53;;;;;;;0.00;0.00;;;;;;;;;;5072958;28;20100;-51
2022/05/12 02:34:18;;;;;;;0.00;0.00;;;;;;;;;;5072097;28;20051;-51
2022/05/12 02:36:59;;;;;;;0.00;0.00;;;;;;;;;;5072526;28;20024;-53
2022/05/12 02:39:25;;;;;;;0.00;0.00;;;;;;;;;;5071412;28;20355;-50
2022/05/12 02:41:50;;;;;;;1.38;1.27;;;;;;;;;;5072347;28;20023;-53
2022/05/12 02:44:15;;;;;;;0.00;0.00;;;;;;;;;;5071925;28;20024;-54
2022/05/12 02:46:40;;;;;;;0.00;0.00;;;;;;;;;;5072658;28;20255;-55
2022/05/12 02:49:05;;;;;;;0.00;0.00;;;;;;;;;;5072117;28;20044;-54
2022/05/12 02:51:31;;;;;;;0.00;0.00;;;;;;;;;;5052545;28;20262;-53
2022/05/12 02:53:56;;;;;;;0.00;0.00;;;;;;;;;;5072045;28;20027;-54
2022/05/12 02:56:21;;;;;;;0.00;0.00;;;;;;;;;;5071722;28;20024;-55
2022/05/12 02:58:46;;;;;;;0.00;0.00;;;;;;;;;;5070897;28;20032;-55
2022/05/12 03:01:11;;;;;;;0.00;0.00;;;;;;;;;;5071669;28;20008;-54
2022/05/12 03:03:37;;;;;;;0.00;0.00;;;;;;;;;;5071659;28;20028;-52
2022/05/12 03:06:02;;;;;;;0.00;0.00;;;;;;;;;;5071581;28;20081;-50
2022/05/12 03:08:27;;;;;;;0.00;0.00;;;;;;;;;;5071004;28;20040;-53
2022/05/12 03:10:53;;;;;;;0.00;0.00;;;;;;;;;;5071707;28;20029;-53
2022/05/12 03:13:19;;;;;;;0.00;0.00;;;;;;;;;;5071829;28;20104;-51
2022/05/12 03:15:44;;;;;;;0.00;0.00;;;;;;;;;;5071882;28;20056;-56
2022/05/12 03:18:10;;;;;;;0.90;0.90;;;;;;;;;;5070986;28;20024;-53
2022/05/12 03:20:35;;;;;;;0.00;0.00;;;;;;;;;;5051561;28;20052;-54
2022/05/12 03:23:00;;;;;;;0.00;0.00;;;;;;;;;;5071750;28;20033;-53
2022/05/12 03:25:26;;;;;;;0.00;0.00;;;;;;;;;;5071085;28;20449;-54
2022/05/12 03:27:51;;;;;;;0.00;0.00;;;;;;;;;;5071707;28;20033;-54
2022/05/12 03:30:18;;;;;;;0.00;0.00;;;;;;;;;;5071070;28;20016;-53
2022/05/12 03:32:44;;;;;;;0.00;0.00;;;;;;;;;;5071347;28;20032;-53
2022/05/12 03:35:09;;;;;;;0.00;0.00;;;;;;;;;;5071038;28;20041;-56
2022/05/12 03:37:35;;;;;;;0.00;0.00;;;;;;;;;;5070890;28;20117;-53
2022/05/12 03:40:00;;;;;;;0.00;0.00;;;;;;;;;;5071718;28;20217;-54
2022/05/12 03:42:25;;;;;;;0.00;0.00;;;;;;;;;;5071161;28;20028;-53
2022/05/12 03:44:51;;;;;;;0.00;0.00;;;;;;;;;;5071188;28;20429;-55
2022/05/12 03:47:19;;;;;;;0.00;0.00;;;;;;;;;;5070584;28;20035;-54
2022/05/12 03:49:45;;;;;;;0.00;0.00;;;;;;;;;;5069467;28;20048;-54
2022/05/12 03:52:10;;;;;;;0.00;0.00;;;;;;;;;;5071107;28;20535;-55
2022/05/12 03:54:36;;;;;;;0.00;0.00;;;;;;;;;;5070877;28;20090;-52
2022/05/12 03:57:01;;;;;;;0.00;0.00;;;;;;;;;;5070909;28;20021;-54
2022/05/12 03:59:27;;;;;;;0.00;0.00;;;;;;;;;;5066235;28;20090;-55
2022/05/12 04:01:52;;;;;;;0.00;0.00;;;;;;;;;;5070686;28;20024;-53
2022/05/12 04:04:17;;;;;;;0.00;0.00;;;;;;;;;;5069767;28;20518;-55
2022/05/12 04:06:42;;;;;;;0.00;0.00;;;;;;;;;;5068413;28;20027;-54
2022/05/12 04:09:08;;;;;;;0.00;0.00;;;;;;;;;;5070062;28;20404;-55
2022/05/12 04:11:33;;;;;;;0.00;0.00;;;;;;;;;;5070327;28;20377;-52
2022/05/12 04:13:58;;;;;;;0.00;0.00;;;;;;;;;;5070063;28;20110;-56
2022/05/12 04:16:24;;;;;;;0.00;0.00;;;;;;;;;;5069065;28;20639;-54
2022/05/12 04:18:49;;;;;;;0.00;0.00;;;;;;;;;;5070468;28;20032;-53
2022/05/12 04:21:16;;;;;;;0.00;0.00;;;;;;;;;;5070089;28;20028;-54
2022/05/12 04:23:41;;;;;;;1.98;0.40;;;;;;;;;;5069559;28;20660;-55
2022/05/12 04:26:06;;;;;;;0.00;0.00;;;;;;;;;;5069540;28;20025;-55
2022/05/12 04:28:33;;;;;;;0.00;0.00;;;;;;;;;;5070995;28;20078;-54
2022/05/12 04:30:58;;;;;;;0.00;0.00;;;;;;;;;;5067568;28;20024;-55
2022/05/12 04:36:08;;;;;;;0.00;0.00;;;;;;;;;;5069287;28;20052;-55
2022/05/12 04:38:33;;;;;;;0.00;0.00;;;;;;;;;;5069661;28;20029;-53
2022/05/12 04:40:58;;;;;;;0.00;0.00;;;;;;;;;;5070106;28;20048;-52
2022/05/12 04:43:23;;;;;;;0.00;0.00;;;;;;;;;;5069735;28;20028;-56
2022/05/12 04:45:49;;;;;;;0.00;0.00;;;;;;;;;;5069083;28;20027;-52
2022/05/12 04:48:14;;;;;;;0.00;0.00;;;;;;;;;;5070702;28;20028;-55
2022/05/12 04:50:42;;;;;;;0.00;0.00;;;;;;;;;;5068532;28;20024;-53
2022/05/12 04:53:08;;;;;;;0.00;0.00;;;;;;;;;;5069125;28;20063;-53
2022/05/12 04:55:33;;;;;;;0.00;0.00;;;;;;;;;;5068950;28;20044;-54
2022/05/12 04:57:59;;;;;;;0.00;0.00;;;;;;;;;;5069662;28;20020;-52
2022/05/12 05:00:45;;;;;;;0.00;0.00;;;;;;;;;;5069265;28;20070;-51
2022/05/12 05:03:11;;;;;;;0.00;0.00;;;;;;;;;;5068148;28;20040;-55
2022/05/12 05:05:36;;;;;;;0.00;0.00;;;;;;;;;;5068773;28;20127;-52
2022/05/12 05:08:02;;;;;;;0.00;0.00;;;;;;;;;;5068721;28;20047;-52
2022/05/12 05:10:27;;;;;;;0.00;0.00;;;;;;;;;;5068239;28;20469;-53
2022/05/12 05:12:53;;;;;;;0.00;0.00;;;;;;;;;;5069147;28;20025;-51
2022/05/12 05:15:19;;;;;;;0.00;0.00;;;;;;;;;;5068552;28;20023;-54
2022/05/12 05:17:44;;;;;;;0.00;0.00;;;;;;;;;;5068775;28;20140;-48
2022/05/12 05:20:12;;;;;;;0.00;0.00;;;;;;;;;;5068066;28;20469;-54
2022/05/12 05:22:37;;;;;;;0.00;0.00;;;;;;;;;;5068445;28;20149;-54
2022/05/12 05:25:03;;;;;;;0.00;0.00;;;;;;;;;;5068689;28;20100;-52
2022/05/12 05:27:28;;;;;;;0.00;0.00;;;;;;;;;;5069186;28;20024;-54
2022/05/12 05:29:53;;;;;;;0.00;0.00;;;;;;;;;;5068929;28;20470;-51
2022/05/12 05:32:20;;;;;;;0.00;0.00;;;;;;;;;;5068645;28;20031;-54
2022/05/12 05:34:45;;;;;;;0.70;0.50;;;;;;;;;;5067474;28;20047;-55
2022/05/12 05:37:10;;;;;;;0.00;0.00;;;;;;;;;;5068505;28;20107;-52
2022/05/12 05:39:38;;;;;;;0.00;0.00;;;;;;;;;;5068197;28;20020;-53
2022/05/12 05:42:09;;;;;;;0.00;0.00;;;;;;;;;;5068805;28;20251;-55
2022/05/12 05:44:34;;;;;;;0.00;0.00;;;;;;;;;;5065418;28;20446;-56
2022/05/12 05:47:00;;;;;;;0.00;0.00;;;;;;;;;;5068740;28;20024;-55
2022/05/12 05:49:27;;;;;;;0.00;0.00;;;;;;;;;;5067076;28;20024;-54
2022/05/12 05:54:35;;;;;;;0.00;0.00;;;;;;;;;;5067909;28;20170;-54
2022/05/12 05:57:01;;;;;;;0.17;0.10;;;;;;;;;;5068354;28;20103;-56
2022/05/12 05:59:26;;;;;;;0.00;0.00;;;;;;;;;;5065565;28;20024;-53
2022/05/12 06:01:51;;;;;;;0.00;0.00;;;;;;;;;;5064397;28;20044;-55
2022/05/12 06:04:17;;;;;;;0.00;0.00;;;;;;;;;;5067648;28;20458;-53
2022/05/12 06:06:44;;;;;;;0.00;0.00;;;;;;;;;;5058455;28;20028;-56
2022/05/12 06:09:09;;;;;;;0.00;0.00;;;;;;;;;;5055357;28;20024;-55
2022/05/12 06:11:34;;;;;;;0.00;0.00;;;;;;;;;;5065606;28;20035;-55
2022/05/12 06:13:59;;;;;;;0.00;0.00;;;;;;;;;;5066072;28;20024;-54
2022/05/12 06:16:25;;;;;;;0.00;0.00;;;;;;;;;;5065341;28;20024;-55
2022/05/12 06:18:50;;;;;;;0.00;0.00;;;;;;;;;;5066506;28;20263;-54
2022/05/12 06:21:16;;;;;;;0.00;0.00;;;;;;;;;;5062043;28;20112;-55
2022/05/12 06:23:42;;;;;;;0.08;0.08;;;;;;;;;;5066951;28;20070;-53
2022/05/12 06:26:13;;;;;;;0.00;0.00;;;;;;;;;;5060435;28;20025;-55
2022/05/12 06:28:40;;;;;;;0.00;0.00;;;;;;;;;;5066359;28;20469;-53
2022/05/12 06:31:06;;;;;;;0.00;0.00;;;;;;;;;;5059997;28;20462;-50
2022/05/12 06:33:33;;;;;;;0.73;0.73;;;;;;;;;;5062981;28;20128;-52
2022/05/12 06:35:58;;;;;;;0.00;0.00;;;;;;;;;;5066095;28;20280;-55
2022/05/12 06:38:23;;;;;;;0.00;0.00;;;;;;;;;;5065350;28;20056;-54
2022/05/12 06:40:48;;;;;;;0.00;0.00;;;;;;;;;;5065717;28;20024;-56
2022/05/12 06:43:14;;;;;;;0.00;0.00;;;;;;;;;;5069831;28;20411;-52
2022/05/12 06:45:39;;;;;;;0.00;0.00;;;;;;;;;;5067361;28;20263;-55
2022/05/12 06:48:04;;;;;;;0.00;0.00;;;;;;;;;;5066200;28;20039;-55
2022/05/12 06:50:30;;;;;;;0.00;0.00;;;;;;;;;;5069711;28;20518;-56
2022/05/12 06:52:55;;;;;;;0.00;0.00;;;;;;;;;;5067515;28;20036;-55
2022/05/12 06:55:27;;;;;;;0.00;0.00;;;;;;;;;;5070160;28;20062;-52
2022/05/12 06:57:52;;;;;;;0.10;0.10;;;;;;;;;;5071390;28;20037;-56
2022/05/12 07:00:17;;;;;;;0.00;0.00;;;;;;;;;;5071648;28;20043;-57
2022/05/12 07:02:44;;;;;;;0.00;0.00;;;;;;;;;;5069261;28;20497;-56
2022/05/12 07:05:11;;;;;;;0.00;0.00;;;;;;;;;;5073308;28;20023;-54
2022/05/12 07:07:36;;;;;;;0.08;0.08;;;;;;;;;;5064009;28;20473;-56
2022/05/12 07:10:03;;;;;;;0.22;0.20;;;;;;;;;;5069097;28;20013;-57
2022/05/12 07:12:28;;;;;;;0.00;0.00;;;;;;;;;;5072578;28;20016;-52
2022/05/12 07:14:55;;;;;;;0.68;0.30;;;;;;;;;;5067814;28;20558;-57
2022/05/12 07:17:20;;;;;;;0.00;0.00;;;;;;;;;;5072268;28;20016;-56
2022/05/12 07:19:46;;;;;;;0.00;0.00;;;;;;;;;;5065417;28;20488;-58
2022/05/12 07:26:35;;;;;;;0.00;0.00;;;;;;;;;;5067384;28;20039;-59
2022/05/12 07:27:40;;;;;;;0.00;0.00;;;;;;;;;;5064270;28;20072;-59
2022/05/12 07:30:06;;;;;;;0.00;0.00;;;;;;;;;;5067369;28;20067;-58
2022/05/12 07:32:31;;;;;;;0.00;0.00;;;;;;;;;;5064123;28;20357;-58
2022/05/12 07:34:56;;;;;;;0.03;0.03;;;;;;;;;;5067180;28;20102;-59
2022/05/12 07:37:22;;;;;;;0.00;0.00;;;;;;;;;;5062843;28;20020;-54
2022/05/12 07:39:47;;;;;;;0.00;0.00;;;;;;;;;;5071239;28;20108;-54
2022/05/12 07:42:12;;;;;;;0.00;0.00;;;;;;;;;;5074119;28;20048;-56
2022/05/12 07:44:38;;;;;;;0.00;0.00;;;;;;;;;;5073493;28;20028;-56
2022/05/12 07:47:09;;;;;;;0.00;0.00;;;;;;;;;;5074411;28;20021;-53
2022/05/12 07:49:36;;;;;;;0.00;0.00;;;;;;;;;;5073059;28;20032;-55
2022/05/12 07:52:03;;;;;;;0.00;0.00;;;;;;;;;;5071249;28;20108;-53
2022/05/12 07:54:28;;;;;;;0.00;0.00;;;;;;;;;;5074294;28;20104;-56
2022/05/12 07:56:53;;;;;;;0.00;0.00;;;;;;;;;;5074006;28;20103;-56
2022/05/12 07:59:19;;;;;;;0.00;0.00;;;;;;;;;;5072454;28;20318;-57
2022/05/12 08:01:44;;;;;;;0.00;0.00;;;;;;;;;;5076953;28;20027;-57
2022/05/12 08:04:10;;;;;;;0.00;0.00;;;;;;;;;;5072020;28;20486;-56
2022/05/12 08:06:35;;;;;;;0.00;0.00;;;;;;;;;;5071683;28;20496;-57
2022/05/12 08:09:01;;;;;;;0.17;0.17;;;;;;;;;;5072835;28;20028;-57
2022/05/12 08:11:26;;;;;;;0.00;0.00;;;;;;;;;;5073768;28;20036;-57
2022/05/12 08:13:51;;;;;;;0.00;0.00;;;;;;;;;;5073920;28;20082;-57
2022/05/12 08:16:18;;;;;;;0.10;0.10;;;;;;;;;;5074633;28;20027;-57
2022/05/12 08:18:52;;;;;;;0.10;0.10;;;;;;;;;;5073570;28;20273;-58
2022/05/12 08:21:18;;;;;;;2.17;1.27;;;;;;;;;;5071978;28;20040;-57
2022/05/12 08:23:43;;;;;;;0.00;0.00;;;;;;;;;;5073599;28;20365;-56
2022/05/12 08:26:11;;;;;;;0.00;0.00;;;;;;;;;;5073822;28;20099;-59
2022/05/12 08:28:42;;;;;;;0.00;0.00;;;;;;;;;;5073590;28;20553;-57
2022/05/12 08:31:08;;;;;;;0.00;0.00;;;;;;;;;;5072432;28;20365;-55
2022/05/12 08:33:33;;;;;;;0.00;0.00;;;;;;;;;;5072002;28;20051;-57
2022/05/12 08:36:01;;;;;;;0.00;0.00;;;;;;;;;;5072495;28;20048;-55
2022/05/12 08:38:26;;;;;;;0.08;0.00;;;;;;;;;;5067738;28;20036;-55
2022/05/12 08:40:57;;;;;;;0.00;0.00;;;;;;;;;;5071177;28;20043;-56
2022/05/12 08:43:48;;;;;;;0.00;0.00;;;;;;;;;;5069263;28;20111;-56
2022/05/12 08:46:15;;;;;;;0.00;0.00;;;;;;;;;;5058746;28;20106;-56
2022/05/12 08:48:44;;;;;;;0.00;0.00;;;;;;;;;;5071048;28;20020;-55
2022/05/12 08:51:16;;;;;;;0.00;0.00;;;;;;;;;;5070867;28;20036;-56
2022/05/12 08:53:47;;;;;;;0.00;0.00;;;;;;;;;;5069799;28;20032;-55
2022/05/12 08:56:26;;;;;;;1.20;1.20;;;;;;;;;;5071461;28;20458;-56
2022/05/12 08:58:57;;;;;;;0.00;0.00;;;;;;;;;;5072366;28;20012;-55
2022/05/12 09:01:32;;;;;;;0.00;0.00;;;;;;;;;;5070522;28;20029;-53
2022/05/12 09:04:13;;;;;;;0.00;0.00;;;;;;;;;;5072235;28;20555;-53
2022/05/12 09:06:44;;;;;;;0.00;0.00;;;;;;;;;;5071268;28;20406;-53
2022/05/12 09:09:28;;;;;;;3.85;2.50;;;;;;;;;;5069737;28;20036;-57
2022/05/12 09:12:01;;;;;;;0.00;0.00;;;;;;;;;;5070124;28;20020;-58
2022/05/12 09:14:36;;;;;;;0.00;0.00;;;;;;;;;;5068509;28;20024;-58
2022/05/12 09:17:03;;;;;;;0.00;0.00;;;;;;;;;;5070003;28;20013;-56
2022/05/12 09:19:29;;;;;;;0.00;0.00;;;;;;;;;;5068323;28;20016;-57
2022/05/12 09:21:55;;;;;;;0.00;0.00;;;;;;;;;;5069846;28;20039;-57
2022/05/12 09:24:20;;;;;;;0.00;0.00;;;;;;;;;;5070236;28;20040;-55
2022/05/12 09:26:48;;;;;;;0.00;0.00;;;;;;;;;;5070286;28;20031;-57
2022/05/12 09:29:16;;;;;;;0.00;0.00;;;;;;;;;;5071470;28;20039;-56
2022/05/12 09:31:44;;;;;;;2.23;2.03;;;;;;;;;;5067403;28;20023;-57
2022/05/12 09:34:20;;;;;;;0.28;0.28;;;;;;;;;;5065546;28;20053;-57
2022/05/12 09:37:11;;;;;;;0.00;0.00;;;;;;;;;;5069563;28;20024;-57
2022/05/12 09:39:39;;;;;;;1.40;1.35;;;;;;;;;;5066012;28;20036;-53
2022/05/12 09:42:06;;;;;;;0.00;0.00;;;;;;;;;;5070014;28;20023;-52
2022/05/12 09:44:32;;;;;;;0.00;0.00;;;;;;;;;;5068614;28;20035;-51
2022/05/12 09:47:03;;;;;;;0.00;0.00;;;;;;;;;;5069826;28;20424;-55
2022/05/12 09:49:31;;;;;;;0.00;0.00;;;;;;;;;;5070293;28;20056;-56
2022/05/12 09:51:56;;;;;;;0.00;0.00;;;;;;;;;;5060139;28;20122;-56
2022/05/12 09:54:25;;;;;;;0.00;0.00;;;;;;;;;;5067401;28;20032;-55
2022/05/12 09:57:10;;;;;;;0.00;0.00;;;;;;;;;;5069130;28;20029;-56
2022/05/12 09:59:36;;;;;;;0.00;0.00;;;;;;;;;;5068666;28;20024;-55
2022/05/12 10:02:01;;;;;;;0.00;0.00;;;;;;;;;;5068039;28;20074;-54
2022/05/12 10:10:01;;;;;;;0.00;0.00;;;;;;;;;;5069591;28;20089;-55
2022/05/12 10:12:31;;;;;;;0.00;0.00;;;;;;;;;;5048859;28;20365;-55
2022/05/12 10:14:59;;;;;;;1.13;1.13;;;;;;;;;;5067305;28;20059;-54
2022/05/12 10:17:27;;;;;;;0.00;0.00;;;;;;;;;;5068803;28;20107;-52
2022/05/12 10:19:52;;;;;;;0.00;0.00;;;;;;;;;;5069243;28;20051;-56
2022/05/12 10:22:22;;;;;;;0.00;0.00;;;;;;;;;;5068789;28;20131;-54
2022/05/12 10:25:13;;;;;;;0.00;0.00;;;;;;;;;;5068306;28;20471;-53
2022/05/12 10:27:44;;;;;;;0.00;0.00;;;;;;;;;;5039568;28;20107;-56
2022/05/12 10:30:45;;;;;;;0.00;0.00;;;;;;;;;;5070846;28;20036;-53
2022/05/12 10:33:10;;;;;;;0.00;0.00;;;;;;;;;;4992079;28;20169;-55
2022/05/12 10:35:37;;;;;;;0.00;0.00;;;;;;;;;;5055880;28;20145;-56
2022/05/12 10:38:27;;;;;;;0.00;0.00;;;;;;;;;;5073559;28;20408;-55
2022/05/12 10:41:12;;;;;;;0.00;0.00;;;;;;;;;;5063590;28;20029;-56
2022/05/12 10:43:38;;;;;;;0.00;0.00;;;;;;;;;;5070534;28;20462;-57
2022/05/12 10:46:04;;;;;;;0.10;0.10;;;;;;;;;;5073523;28;20027;-50
2022/05/12 10:48:41;;;;;;;0.00;0.00;;;;;;;;;;5070198;28;20024;-54
2022/05/12 10:51:18;;;;;;;0.00;0.00;;;;;;;;;;5049988;28;20024;-54
2022/05/12 10:54:02;;;;;;;0.00;0.00;;;;;;;;;;5069721;28;20082;-55
2022/05/12 10:56:39;;;;;;;0.00;0.00;;;;;;;;;;5070666;28;20050;-55
2022/05/12 10:59:22;;;;;;;0.00;0.00;;;;;;;;;;5071073;28;20092;-56
2022/05/12 11:01:50;;;;;;;0.00;0.00;;;;;;;;;;5071705;28;20016;-55
2022/05/12 11:04:15;;;;;;;0.00;0.00;;;;;;;;;;5070506;28;20477;-54
2022/05/12 11:06:43;;;;;;;0.00;0.00;;;;;;;;;;5067048;28;20099;-53
2022/05/12 11:09:27;;;;;;;0.00;0.00;;;;;;;;;;5072506;28;20024;-53
2022/05/12 11:11:53;;;;;;;0.00;0.00;;;;;;;;;;5070065;28;20025;-53
2022/05/12 11:14:30;;;;;;;0.68;0.68;;;;;;;;;;5070329;28;20047;-53
2022/05/12 11:17:16;;;;;;;0.00;0.00;;;;;;;;;;5068045;28;20024;-54
2022/05/12 11:19:43;;;;;;;0.03;0.03;;;;;;;;;;5064899;28;20032;-55
2022/05/12 11:22:11;;;;;;;0.00;0.00;;;;;;;;;;5068033;28;20048;-54
2022/05/12 11:24:45;;;;;;;0.15;0.15;;;;;;;;;;5070984;28;20107;-53
2022/05/12 11:27:13;;;;;;;0.00;0.00;;;;;;;;;;5067779;28;20027;-53
2022/05/12 11:29:51;;;;;;;0.73;0.73;;;;;;;;;;5069176;28;20016;-51
2022/05/12 11:32:26;;;;;;;0.00;0.00;;;;;;;;;;5070650;28;20322;-54
2022/05/12 11:34:54;;;;;;;0.00;0.00;;;;;;;;;;5069439;28;20067;-51
2022/05/12 11:37:28;;;;;;;0.00;0.00;;;;;;;;;;5071697;28;20036;-55
2022/05/12 11:39:55;;;;;;;0.00;0.00;;;;;;;;;;5071446;28;20028;-53
2022/05/12 11:42:20;;;;;;;0.00;0.00;;;;;;;;;;5071205;28;20028;-54
2022/05/12 11:44:56;;;;;;;0.00;0.00;;;;;;;;;;5071583;28;20416;-52
2022/05/12 11:47:21;;;;;;;0.90;0.90;;;;;;;;;;5071793;28;20263;-52
2022/05/12 11:49:59;;;;;;;0.20;0.03;;;;;;;;;;5070868;28;20021;-55
2022/05/12 11:52:24;;;;;;;0.10;0.10;;;;;;;;;;5071186;28;20086;-53
2022/05/12 11:54:57;;;;;;;0.00;0.00;;;;;;;;;;5071500;28;20051;-53
2022/05/12 11:57:29;;;;;;;0.00;0.00;;;;;;;;;;5069860;28;20273;-52
2022/05/12 11:59:56;;;;;;;0.00;0.00;;;;;;;;;;5071649;28;20035;-52
2022/05/12 12:02:27;;;;;;;0.15;0.15;;;;;;;;;;5070857;28;20062;-53
2022/05/12 12:04:53;;;;;;;0.00;0.00;;;;;;;;;;5070772;28;20047;-51
2022/05/12 12:07:18;;;;;;;0.10;0.10;;;;;;;;;;5070289;28;20393;-53
2022/05/12 12:09:43;;;;;;;0.00;0.00;;;;;;;;;;5070526;28;20074;-54
2022/05/12 12:12:11;;;;;;;0.00;0.00;;;;;;;;;;5070732;28;20263;-52
2022/05/12 12:14:42;;;;;;;0.00;0.00;;;;;;;;;;5070200;28;20336;-52
2022/05/12 12:17:14;;;;;;;0.00;0.00;;;;;;;;;;5068137;28;20036;-52
2022/05/12 12:19:46;;;;;;;0.00;0.00;;;;;;;;;;5069815;28;20013;-51
2022/05/12 12:22:20;;;;;;;0.00;0.00;;;;;;;;;;5072159;28;20071;-51
2022/05/12 12:25:11;;;;;;;0.00;0.00;;;;;;;;;;5070719;28;20552;-53
2022/05/12 12:27:46;;;;;;;0.00;0.00;;;;;;;;;;5065477;28;20494;-50
2022/05/12 12:30:26;;;;;;;0.00;0.00;;;;;;;;;;5070705;28;20016;-47
2022/05/12 12:33:08;;;;;;;0.00;0.00;;;;;;;;;;5070543;28;20029;-53
2022/05/12 12:35:47;;;;;;;0.00;0.00;;;;;;;;;;5066329;28;20041;-54
2022/05/12 12:38:33;;;;;;;0.00;0.00;;;;;;;;;;5069686;28;20032;-54
2022/05/12 12:40:58;;;;;;;0.00;0.00;;;;;;;;;;5066407;28;20421;-51
2022/05/12 12:43:38;;;;;;;0.00;0.00;;;;;;;;;;5067104;28;20028;-52
2022/05/12 12:46:03;;;;;;;;;;;;;;;;;;5067781;28;20466;-53
2022/05/12 12:48:31;;;;;;;1.40;0.98;;;;;;;;;;5067133;28;20313;-53
2022/05/12 12:50:56;;;;;;;0.00;0.00;;;;;;;;;;5070291;28;20032;-53
2022/05/12 12:56:30;;;;;;;0.00;0.00;;;;;;;;;;5066045;28;20397;-53
2022/05/12 12:58:56;;;;;;;0.00;0.00;;;;;;;;;;5065262;28;20017;-51
2022/05/12 13:01:21;;;;;;;0.00;0.00;;;;;;;;;;5068282;28;20024;-49
2022/05/12 13:03:49;;;;;;;0.00;0.00;;;;;;;;;;5068660;28;20107;-55
2022/05/12 13:06:17;;;;;;;0.00;0.00;;;;;;;;;;5067179;28;20033;-52
2022/05/12 13:08:43;;;;;;;0.00;0.00;;;;;;;;;;5064798;28;20429;-53
2022/05/12 13:11:20;;;;;;;0.00;0.00;;;;;;;;;;5066174;28;20017;-52
2022/05/12 13:13:53;;;;;;;0.00;0.00;;;;;;;;;;5063254;28;20079;-51
2022/05/12 13:16:21;;;;;;;0.00;0.00;;;;;;;;;;5068364;28;20017;-54
2022/05/12 13:18:48;;;;;;;0.00;0.00;;;;;;;;;;5067477;28;20657;-53
2022/05/12 13:21:23;;;;;;;0.00;0.00;;;;;;;;;;5069498;28;20023;-55
2022/05/12 13:24:01;;;;;;;0.00;0.00;;;;;;;;;;5065779;28;20071;-56
2022/05/12 13:26:27;;;;;;;0.00;0.00;;;;;;;;;;5066002;28;20039;-53
2022/05/12 13:28:52;;;;;;;0.00;0.00;;;;;;;;;;5063142;28;20029;-54
2022/05/12 13:31:21;;;;;;;0.00;0.00;;;;;;;;;;5061227;28;20028;-53
2022/05/12 13:33:47;;;;;;;;;;;;;;;;;;5066214;28;20112;-54
2022/05/12 13:36:20;;;;;;;0.00;0.00;;;;;;;;;;5066702;28;20069;-55
2022/05/12 13:38:46;;;;;;;0.00;0.00;;;;;;;;;;5066536;28;20028;-56
2022/05/12 13:41:41;;;;;;;2.30;1.52;;;;;;;;;;5068243;28;20031;-55
2022/05/12 13:44:24;;;;;;;0.00;0.00;;;;;;;;;;5047196;28;20036;-54
2022/05/12 13:46:59;;;;;;;0.00;0.00;;;;;;;;;;5063951;28;20025;-53
2022/05/12 13:49:29;;;;;;;0.00;0.00;;;;;;;;;;5065450;28;20059;-56
2022/05/12 13:51:56;;;;;;;3.72;1.00;;;;;;;;;;5066534;28;20447;-56
2022/05/12 13:54:36;;;;;;;0.00;0.00;;;;;;;;;;5064663;28;20466;-53
2022/05/12 13:57:19;;;;;;;0.20;0.20;;;;;;;;;;5066315;28;20025;-55
2022/05/12 14:00:12;;;;;;;0.00;0.00;;;;;;;;;;5066905;28;20012;-51
2022/05/12 14:02:38;;;;;;;0.00;0.00;;;;;;;;;;5065342;28;20127;-53
2022/05/12 14:05:23;;;;;;;0.25;0.25;;;;;;;;;;5066588;28;20111;-54
2022/05/12 14:08:08;;;;;;;0.32;0.32;;;;;;;;;;5063055;28;20098;-52
2022/05/12 14:10:41;;;;;;;0.17;0.13;;;;;;;;;;5066251;28;20021;-54
2022/05/12 14:21:25;;;;;;;0.00;0.00;;;;;;;;;;5064024;28;20087;-58
2022/05/12 14:23:50;;;;;;;0.10;0.10;;;;;;;;;;5066773;28;20078;-58
2022/05/12 14:26:15;;;;;;;0.00;0.00;;;;;;;;;;5060617;28;20450;-58
2022/05/12 14:28:41;;;;;;;0.00;0.00;;;;;;;;;;5063990;28;20062;-56
2022/05/12 14:31:06;;;;;;;0.00;0.00;;;;;;;;;;5067369;28;20032;-57
2022/05/12 14:33:32;;;;;;;0.00;0.00;;;;;;;;;;5059399;28;20044;-57
2022/05/12 14:35:57;;;;;;;0.00;0.00;;;;;;;;;;5048036;28;20060;-58
2022/05/12 14:38:24;;;;;;;0.00;0.00;;;;;;;;;;5065370;28;20098;-58
2022/05/12 14:40:49;;;;;;;0.00;0.00;;;;;;;;;;5056107;28;20452;-58
2022/05/12 14:43:14;;;;;;;0.17;0.17;;;;;;;;;;5064760;28;20029;-59
2022/05/12 14:45:39;;;;;;;0.00;0.00;;;;;;;;;;5066825;28;20056;-57
2022/05/12 14:48:07;;;;;;;1.27;1.27;;;;;;;;;;5064600;28;20056;-58
2022/05/12 14:50:32;;;;;;;0.00;0.00;;;;;;;;;;5062543;28;20024;-57
2022/05/12 14:52:58;;;;;;;0.00;0.00;;;;;;;;;;5065731;28;20032;-58
2022/05/12 14:55:24;;;;;;;0.65;0.50;;;;;;;;;;5065746;28;20021;-57
2022/05/12 14:57:49;;;;;;;0.00;0.00;;;;;;;;;;5063860;28;20489;-58
2022/05/12 15:00:15;;;;;;;0.00;0.00;;;;;;;;;;5067057;28;20009;-58
2022/05/12 15:02:41;;;;;;;0.13;0.13;;;;;;;;;;5064096;28;20031;-57
2022/05/12 15:05:07;;;;;;;0.00;0.00;;;;;;;;;;5066651;28;20024;-59
2022/05/12 15:07:33;;;;;;;0.00;0.00;;;;;;;;;;5065280;28;20036;-56
2022/05/12 15:09:58;;;;;;;0.52;0.52;;;;;;;;;;5067300;28;20098;-58
2022/05/12 15:12:23;;;;;;;0.00;0.00;;;;;;;;;;5067410;28;20033;-58
2022/05/12 15:14:48;;;;;;;0.00;0.00;;;;;;;;;;5066512;28;20061;-61